Time;durP1;ratioP1;P1;durP2;ratioP2;P2;SDS_P1;SDS_P2;PMS_P1;PMS_P2;Temp;Humidity;BMP_temperature;BMP_pressure;BME280_temperature;BME280_humidity;BME280_pressure;Samples;Min_cycle;Max_cycle;Signal;HPM_P1;HPM_P2
2023/05/24 00:01:47;;;;;;;1.50;1.23;;;22.00;79.70;;;;;;4992342;28;20189;-45
2023/05/24 00:04:13;;;;;;;2.05;1.40;;;22.00;79.60;;;;;;5002838;28;20456;-46
2023/05/24 00:06:41;;;;;;;3.13;1.85;;;22.00;79.80;;;;;;5010752;28;20545;-46
2023/05/24 00:09:10;;;;;;;1.58;1.15;;;22.00;80.00;;;;;;5007365;28;20192;-46
2023/05/24 00:11:37;;;;;;;1.90;1.40;;;22.00;80.00;;;;;;5005244;28;20279;-48
2023/05/24 00:14:03;;;;;;;2.83;1.50;;;22.00;80.00;;;;;;5002751;28;20815;-50
2023/05/24 00:16:30;;;;;;;1.50;1.20;;;22.00;80.20;;;;;;5007691;28;20463;-46
2023/05/24 00:18:58;;;;;;;1.93;1.80;;;22.00;80.30;;;;;;5010029;28;20804;-48
2023/05/24 00:21:24;;;;;;;1.77;1.30;;;22.00;80.10;;;;;;5005949;28;20792;-47
2023/05/24 00:23:51;;;;;;;2.33;1.37;;;22.00;80.10;;;;;;5009218;28;20484;-48
2023/05/24 00:26:20;;;;;;;1.37;1.10;;;22.00;80.30;;;;;;5001810;28;20498;-47
2023/05/24 00:28:46;;;;;;;4.90;1.50;;;22.00;80.20;;;;;;5006442;28;20463;-47
2023/05/24 00:31:13;;;;;;;3.73;1.80;;;22.00;80.20;;;;;;4997573;28;20483;-46
2023/05/24 00:33:40;;;;;;;2.33;1.27;;;22.00;80.20;;;;;;5007316;28;20455;-49
2023/05/24 00:36:07;;;;;;;2.43;1.53;;;22.00;80.40;;;;;;5006587;28;20472;-47
2023/05/24 00:38:33;;;;;;;3.03;1.20;;;22.00;80.30;;;;;;5007888;28;20456;-46
2023/05/24 00:41:00;;;;;;;2.65;1.55;;;22.00;80.40;;;;;;5002732;28;20963;-46
2023/05/24 00:43:28;;;;;;;2.57;1.30;;;22.00;80.30;;;;;;5011232;28;20283;-46
2023/05/24 00:46:15;;;;;;;2.90;1.30;;;21.90;80.30;;;;;;5002395;28;20459;-47
2023/05/24 00:48:42;;;;;;;2.33;1.77;;;21.90;80.40;;;;;;5010202;28;20513;-47
2023/05/24 00:51:09;;;;;;;3.40;1.50;;;21.90;80.30;;;;;;5011137;28;20503;-46
2023/05/24 00:53:37;;;;;;;2.67;1.50;;;21.90;80.10;;;;;;5008947;28;20456;-45
2023/05/24 00:56:04;;;;;;;2.90;1.63;;;21.90;80.30;;;;;;5007664;28;20463;-48
2023/05/24 00:58:32;;;;;;;3.27;1.83;;;21.90;80.30;;;;;;5008152;28;20903;-47
2023/05/24 01:01:01;;;;;;;1.90;1.17;;;21.90;80.20;;;;;;5005047;28;20471;-46
2023/05/24 01:03:28;;;;;;;1.88;1.40;;;21.90;80.30;;;;;;5009754;28;20436;-48
2023/05/24 01:05:56;;;;;;;2.83;1.70;;;21.90;80.30;;;;;;5010354;28;20200;-47
2023/05/24 01:08:36;;;;;;;2.90;1.20;;;21.90;80.30;;;;;;5008420;28;20471;-51
2023/05/24 01:11:10;;;;;;;2.30;1.37;;;21.90;80.30;;;;;;5007153;28;20487;-48
2023/05/24 01:13:46;;;;;;;1.90;1.40;;;21.90;80.40;;;;;;5007375;28;20428;-47
2023/05/24 01:16:17;;;;;;;1.50;1.15;;;21.90;80.40;;;;;;5006980;28;20487;-46
2023/05/24 01:18:48;;;;;;;1.33;1.00;;;21.90;80.40;;;;;;4999305;28;20189;-47
2023/05/24 01:21:37;;;;;;;2.87;1.40;;;21.90;80.20;;;;;;5003639;28;20465;-46
2023/05/24 01:24:14;;;;;;;2.55;1.20;;;21.90;80.30;;;;;;5007321;28;20507;-46
2023/05/24 01:26:52;;;;;;;2.75;1.60;;;21.80;80.30;;;;;;4996206;28;20205;-47
2023/05/24 01:29:19;;;;;;;1.80;1.23;;;21.80;80.50;;;;;;5001939;28;20247;-49
2023/05/24 01:31:46;;;;;;;3.38;1.42;;;21.80;80.30;;;;;;5002644;28;20208;-46
2023/05/24 01:34:13;;;;;;;2.00;1.20;;;21.80;80.40;;;;;;5006503;28;20560;-46
2023/05/24 01:36:39;;;;;;;1.48;1.13;;;21.80;80.40;;;;;;5004138;28;20189;-51
2023/05/24 01:39:06;;;;;;;2.72;1.75;;;21.80;80.30;;;;;;5005298;28;20553;-46
2023/05/24 01:41:40;;;;;;;1.85;1.30;;;21.80;80.30;;;;;;5006300;28;20204;-48
2023/05/24 01:44:16;;;;;;;2.28;1.70;;;21.80;80.30;;;;;;5007730;28;20202;-46
2023/05/24 01:46:46;;;;;;;2.75;1.40;;;21.80;80.30;;;;;;5002258;28;20196;-46
2023/05/24 01:49:19;;;;;;;1.95;1.30;;;21.80;80.40;;;;;;5005548;28;20196;-46
2023/05/24 01:51:53;;;;;;;1.80;1.00;;;21.80;80.30;;;;;;5003928;28;20251;-48
2023/05/24 01:54:23;;;;;;;2.57;1.30;;;21.80;80.50;;;;;;4997062;28;20200;-46
2023/05/24 01:56:53;;;;;;;3.00;1.63;;;21.80;80.40;;;;;;5008070;28;20491;-47
2023/05/24 01:59:23;;;;;;;1.70;1.30;;;21.80;80.40;;;;;;5005171;28;20480;-46
2023/05/24 02:01:50;;;;;;;1.60;1.20;;;21.80;80.40;;;;;;5005202;28;20200;-46
2023/05/24 02:04:17;;;;;;;1.67;1.48;;;21.80;80.40;;;;;;5008646;28;20197;-46
2023/05/24 02:06:44;;;;;;;1.98;1.40;;;21.80;80.50;;;;;;5005246;28;20197;-46
2023/05/24 02:09:10;;;;;;;1.80;1.27;;;21.70;80.20;;;;;;5003213;28;20197;-45
2023/05/24 02:11:37;;;;;;;5.25;1.60;;;21.70;80.30;;;;;;5001244;28;20213;-47
2023/05/24 02:17:27;;;;;;;1.90;1.20;;;21.70;80.50;;;;;;4998027;28;20652;-47
2023/05/24 02:19:54;;;;;;;1.70;1.15;;;21.70;80.30;;;;;;5002596;28;20506;-46
2023/05/24 02:22:22;;;;;;;1.27;1.00;;;21.70;80.30;;;;;;5005387;28;20662;-46
2023/05/24 02:24:48;;;;;;;2.10;1.50;;;21.70;80.30;;;;;;5005388;28;20221;-47
2023/05/24 02:27:15;;;;;;;3.40;1.52;;;21.70;80.30;;;;;;5009533;28;20201;-48
2023/05/24 02:29:42;;;;;;;2.28;1.48;;;21.70;80.30;;;;;;5003842;28;20201;-48
2023/05/24 02:32:08;;;;;;;1.67;1.20;;;21.70;80.30;;;;;;4997675;28;20223;-49
2023/05/24 02:34:37;;;;;;;3.58;1.30;;;21.70;80.20;;;;;;5001380;28;20192;-46
2023/05/24 02:37:04;;;;;;;2.30;1.30;;;21.70;80.30;;;;;;5008737;28;20197;-46
2023/05/24 02:39:30;;;;;;;1.65;1.20;;;21.70;80.30;;;;;;5000334;28;20292;-48
2023/05/24 02:41:58;;;;;;;2.30;1.48;;;21.70;80.30;;;;;;4999637;28;20205;-47
2023/05/24 02:44:24;;;;;;;1.65;1.10;;;21.70;80.40;;;;;;5004515;28;20193;-48
2023/05/24 02:46:51;;;;;;;1.50;1.30;;;21.70;80.30;;;;;;4997719;28;20213;-46
2023/05/24 02:49:18;;;;;;;1.30;1.10;;;21.70;80.40;;;;;;5006157;28;20204;-47
2023/05/24 02:51:46;;;;;;;1.42;1.20;;;21.70;80.30;;;;;;5004777;28;20209;-47
2023/05/24 02:54:12;;;;;;;2.00;1.30;;;21.70;80.40;;;;;;5007128;28;20542;-47
2023/05/24 02:56:39;;;;;;;2.78;1.60;;;21.60;81.10;;;;;;5004365;28;20205;-47
2023/05/24 02:59:06;;;;;;;1.40;1.20;;;21.60;80.30;;;;;;5003181;28;20200;-47
2023/05/24 03:01:34;;;;;;;1.42;0.98;;;21.60;80.30;;;;;;5004339;28;20577;-47
2023/05/24 03:04:01;;;;;;;2.03;1.80;;;21.60;80.30;;;;;;5003868;28;20197;-46
2023/05/24 03:06:27;;;;;;;1.30;1.20;;;21.60;80.30;;;;;;5001580;28;20204;-47
2023/05/24 03:08:57;;;;;;;3.90;1.10;;;21.60;80.30;;;;;;5005787;28;20561;-47
2023/05/24 03:11:23;;;;;;;2.03;1.30;;;21.70;80.50;;;;;;5009379;28;20235;-46
2023/05/24 03:13:50;;;;;;;1.48;1.27;;;21.60;80.30;;;;;;5008455;28;20197;-46
2023/05/24 03:16:17;;;;;;;1.40;1.17;;;21.60;80.30;;;;;;5008204;28;20201;-46
2023/05/24 03:18:43;;;;;;;2.83;1.58;;;21.60;81.10;;;;;;5008776;28;20205;-46
2023/05/24 03:21:10;;;;;;;1.20;1.00;;;21.60;80.30;;;;;;5006377;28;20215;-47
2023/05/24 03:23:37;;;;;;;1.65;0.95;;;21.60;80.40;;;;;;5004692;28;20221;-47
2023/05/24 03:26:06;;;;;;;1.42;1.20;;;21.60;80.30;;;;;;5006401;28;20208;-46
2023/05/24 03:28:33;;;;;;;2.97;1.10;;;21.60;80.40;;;;;;5010093;28;20219;-46
2023/05/24 03:31:00;;;;;;;1.73;1.15;;;21.60;80.30;;;;;;5006349;28;20271;-48
2023/05/24 03:33:26;;;;;;;1.50;1.10;;;21.60;80.30;;;;;;5002279;28;20196;-47
2023/05/24 03:35:53;;;;;;;2.60;1.38;;;21.50;80.10;;;;;;5009123;28;20204;-47
2023/05/24 03:38:20;;;;;;;1.23;1.13;;;21.60;80.30;;;;;;5003928;28;20216;-47
2023/05/24 03:40:46;;;;;;;1.65;1.40;;;21.60;80.40;;;;;;5008276;28;20740;-46
2023/05/24 03:43:15;;;;;;;1.67;1.20;;;21.60;80.40;;;;;;5009913;28;20256;-46
2023/05/24 03:45:42;;;;;;;1.65;1.10;;;21.50;80.10;;;;;;5007670;28;20267;-46
2023/05/24 03:48:09;;;;;;;1.55;1.00;;;21.50;80.20;;;;;;4997162;28;20209;-47
2023/05/24 03:50:35;;;;;;;1.85;1.42;;;21.50;80.30;;;;;;5006977;28;20198;-49
2023/05/24 03:53:02;;;;;;;1.40;1.10;;;21.50;80.20;;;;;;5009754;28;20209;-46
2023/05/24 03:55:29;;;;;;;3.25;1.38;;;21.50;80.40;;;;;;5008140;28;20560;-47
2023/05/24 03:57:55;;;;;;;1.50;1.20;;;21.50;80.30;;;;;;5002455;28;20193;-46
2023/05/24 04:00:24;;;;;;;2.13;1.20;;;21.50;80.30;;;;;;5008118;28;20197;-47
2023/05/24 04:02:50;;;;;;;1.52;1.20;;;21.50;80.30;;;;;;4996521;28;20208;-47
2023/05/24 04:05:17;;;;;;;2.08;1.50;;;21.50;81.00;;;;;;5005691;28;20197;-48
2023/05/24 04:07:45;;;;;;;1.83;1.15;;;21.50;80.40;;;;;;5005594;28;20204;-46
2023/05/24 04:10:11;;;;;;;1.95;1.35;;;21.50;80.30;;;;;;5008758;28;20295;-46
2023/05/24 04:12:38;;;;;;;1.40;1.20;;;21.50;80.30;;;;;;5004663;28;20221;-47
2023/05/24 04:15:06;;;;;;;1.40;1.00;;;21.50;81.10;;;;;;5006606;28;20201;-46
2023/05/24 04:17:34;;;;;;;2.00;1.33;;;21.50;80.30;;;;;;5000055;28;20259;-46
2023/05/24 04:20:01;;;;;;;1.10;0.90;;;21.50;80.30;;;;;;5008802;28;20251;-48
2023/05/24 04:22:28;;;;;;;3.25;1.52;;;21.50;80.30;;;;;;5006467;28;20201;-46
2023/05/24 04:24:55;;;;;;;4.53;1.20;;;21.50;80.30;;;;;;5002228;28;20224;-47
2023/05/24 04:27:21;;;;;;;1.50;1.27;;;21.50;80.40;;;;;;5005293;28;20197;-46
2023/05/24 04:29:48;;;;;;;2.10;1.35;;;21.50;80.40;;;;;;5004567;28;20644;-48
2023/05/24 04:32:16;;;;;;;1.92;1.20;;;21.40;80.30;;;;;;4998424;28;20221;-46
2023/05/24 04:34:44;;;;;;;1.70;1.42;;;21.40;80.20;;;;;;5003939;28;20279;-46
2023/05/24 04:37:12;;;;;;;1.60;1.42;;;21.40;80.20;;;;;;5005027;28;20197;-46
2023/05/24 04:39:39;;;;;;;1.80;1.50;;;21.40;80.20;;;;;;5005130;28;20196;-47
2023/05/24 04:42:07;;;;;;;3.78;1.50;;;21.40;80.20;;;;;;5003273;28;20204;-46
2023/05/24 04:44:33;;;;;;;1.90;1.13;;;21.40;80.20;;;;;;5004082;28;20260;-46
2023/05/24 04:47:01;;;;;;;1.40;1.30;;;21.40;80.20;;;;;;5000360;28;20209;-46
2023/05/24 04:49:28;;;;;;;3.45;1.00;;;21.40;80.20;;;;;;5009870;28;20263;-46
2023/05/24 04:51:56;;;;;;;2.75;1.40;;;21.40;80.30;;;;;;5007711;28;20251;-46
2023/05/24 04:54:23;;;;;;;1.83;1.15;;;21.40;80.20;;;;;;5002120;28;20198;-47
2023/05/24 04:56:50;;;;;;;1.65;1.23;;;21.40;80.20;;;;;;5005382;28;20208;-46
2023/05/24 04:59:17;;;;;;;1.63;1.10;;;21.40;80.10;;;;;;5006661;28;20197;-47
2023/05/24 05:01:44;;;;;;;1.23;0.80;;;21.40;80.10;;;;;;5003078;28;20196;-47
2023/05/24 05:04:11;;;;;;;1.52;1.13;;;21.40;80.30;;;;;;5007173;28;20205;-46
2023/05/24 05:06:39;;;;;;;1.55;1.25;;;21.40;81.10;;;;;;5000905;28;20197;-46
2023/05/24 05:09:09;;;;;;;1.50;1.10;;;21.40;80.20;;;;;;5005492;28;20213;-47
2023/05/24 05:11:36;;;;;;;1.70;1.23;;;21.40;80.30;;;;;;5003556;28;20648;-46
2023/05/24 05:14:03;;;;;;;1.20;1.10;;;21.40;80.20;;;;;;5005679;28;20193;-46
2023/05/24 05:16:30;;;;;;;1.92;1.48;;;21.40;80.30;;;;;;5005809;28;20205;-47
2023/05/24 05:18:57;;;;;;;1.30;1.20;;;21.40;80.30;;;;;;5005761;28;20200;-48
2023/05/24 05:21:23;;;;;;;1.25;1.00;;;21.40;80.40;;;;;;5001355;28;20201;-48
2023/05/24 05:23:50;;;;;;;1.30;1.10;;;21.40;80.30;;;;;;5005256;28;20220;-47
2023/05/24 05:26:18;;;;;;;1.10;0.90;;;21.40;80.20;;;;;;5003107;28;20212;-46
2023/05/24 05:28:45;;;;;;;1.35;1.08;;;21.40;80.30;;;;;;5007698;28;20202;-46
2023/05/24 05:31:12;;;;;;;1.50;1.35;;;21.40;80.40;;;;;;5005985;28;20263;-47
2023/05/24 05:33:41;;;;;;;1.92;1.00;;;21.40;80.40;;;;;;5005753;28;20197;-46
2023/05/24 05:36:08;;;;;;;1.52;1.35;;;21.40;80.60;;;;;;4999254;28;20201;-46
2023/05/24 05:38:34;;;;;;;1.60;1.50;;;21.40;80.60;;;;;;5005879;28;20193;-47
2023/05/24 05:41:01;;;;;;;2.20;1.33;;;21.40;80.60;;;;;;4999851;28;20197;-46
2023/05/24 05:43:30;;;;;;;1.50;1.05;;;21.40;80.60;;;;;;5004600;28;20665;-47
2023/05/24 05:45:57;;;;;;;1.02;0.80;;;21.40;80.70;;;;;;5006540;28;20230;-47
2023/05/24 05:48:25;;;;;;;1.50;1.08;;;21.40;80.70;;;;;;4994805;28;20200;-46
2023/05/24 05:50:52;;;;;;;1.65;1.17;;;21.40;80.80;;;;;;5006118;28;20192;-46
2023/05/24 05:53:18;;;;;;;2.20;1.45;;;21.40;80.80;;;;;;5003658;28;20217;-46
2023/05/24 05:55:45;;;;;;;1.83;1.17;;;21.40;80.80;;;;;;5000936;28;20200;-49
2023/05/24 05:58:12;;;;;;;2.50;1.40;;;21.40;80.80;;;;;;5004798;28;20200;-46
2023/05/24 06:00:40;;;;;;;1.20;1.00;;;21.40;80.80;;;;;;5000343;28;20208;-47
2023/05/24 06:03:07;;;;;;;1.38;1.10;;;21.40;80.80;;;;;;5001756;28;20193;-46
2023/05/24 06:05:33;;;;;;;2.55;1.00;;;21.40;80.90;;;;;;5005101;28;20555;-47
2023/05/24 06:08:00;;;;;;;1.88;1.20;;;21.40;80.90;;;;;;5000251;28;20574;-49
2023/05/24 06:10:27;;;;;;;2.25;1.45;;;21.40;81.20;;;;;;4997823;28;20208;-47
2023/05/24 06:12:53;;;;;;;1.60;1.42;;;21.30;81.10;;;;;;5004325;28;20768;-46
2023/05/24 06:15:21;;;;;;;1.10;1.00;;;21.40;81.30;;;;;;5004424;28;20600;-46
2023/05/24 06:17:50;;;;;;;1.75;0.95;;;21.40;82.20;;;;;;5003865;28;20231;-47
2023/05/24 06:20:17;;;;;;;1.80;1.23;;;21.30;81.30;;;;;;5006000;28;20196;-45
2023/05/24 06:22:44;;;;;;;2.25;1.38;;;21.40;81.40;;;;;;4997250;28;20569;-45
2023/05/24 06:25:13;;;;;;;1.67;1.05;;;21.40;81.70;;;;;;4998227;28;20772;-49
2023/05/24 06:27:40;;;;;;;3.67;1.60;;;21.40;81.80;;;;;;5007051;28;20263;-46
2023/05/24 06:30:08;;;;;;;2.33;1.10;;;21.40;81.60;;;;;;5003698;28;20280;-47
2023/05/24 06:32:36;;;;;;;2.95;1.10;;;21.40;82.30;;;;;;5003324;28;20915;-45
2023/05/24 06:35:04;;;;;;;1.42;1.05;;;21.40;81.70;;;;;;5007186;28;20589;-46
2023/05/24 06:37:32;;;;;;;3.90;1.20;;;21.40;81.70;;;;;;5001587;28;20684;-48
2023/05/24 06:39:59;;;;;;;1.85;1.40;;;21.40;81.60;;;;;;5001725;28;20197;-49
2023/05/24 06:42:26;;;;;;;3.15;1.30;;;21.40;81.70;;;;;;5000424;28;20200;-48
2023/05/24 06:44:53;;;;;;;1.65;1.15;;;21.40;81.80;;;;;;5006744;28;20201;-50
2023/05/24 06:47:21;;;;;;;2.80;1.40;;;21.40;82.00;;;;;;5004201;28;20207;-47
2023/05/24 06:49:48;;;;;;;1.90;1.30;;;21.40;82.10;;;;;;5003207;28;20873;-47
2023/05/24 06:52:16;;;;;;;1.20;1.10;;;21.40;82.10;;;;;;5003710;28;20213;-47
2023/05/24 06:54:43;;;;;;;2.50;1.25;;;21.40;82.30;;;;;;5007576;28;20201;-49
2023/05/24 06:57:10;;;;;;;1.85;1.08;;;21.40;82.20;;;;;;5011098;28;20208;-47
2023/05/24 06:59:36;;;;;;;1.67;1.25;;;21.40;82.40;;;;;;5008348;28;20247;-48
2023/05/24 07:02:03;;;;;;;3.95;1.13;;;21.40;82.30;;;;;;5007280;28;20209;-48
2023/05/24 07:04:31;;;;;;;1.40;1.13;;;21.40;82.40;;;;;;5008248;28;20204;-47
2023/05/24 07:06:58;;;;;;;1.77;1.30;;;21.40;82.40;;;;;;5011524;28;20197;-47
2023/05/24 07:09:26;;;;;;;1.80;1.10;;;21.40;82.90;;;;;;5001607;28;20201;-49
2023/05/24 07:11:53;;;;;;;2.17;1.00;;;21.40;82.50;;;;;;5006441;28;20683;-47
2023/05/24 07:14:21;;;;;;;4.93;1.42;;;21.40;82.50;;;;;;5007106;28;20204;-47
2023/05/24 07:16:48;;;;;;;1.75;1.15;;;21.40;82.50;;;;;;5005885;28;20279;-47
2023/05/24 07:19:15;;;;;;;1.52;1.02;;;21.40;82.50;;;;;;5007201;28;20677;-47
2023/05/24 07:21:42;;;;;;;3.95;1.55;;;21.40;82.70;;;;;;4997888;28;20190;-50
2023/05/24 07:24:09;;;;;;;8.43;1.08;;;21.40;82.60;;;;;;4999222;28;20224;-50
2023/05/24 07:26:37;;;;;;;2.80;1.00;;;21.40;82.70;;;;;;5006052;28;20201;-52
2023/05/24 07:29:04;;;;;;;2.70;1.85;;;21.40;83.00;;;;;;5007501;28;20201;-50
2023/05/24 07:31:33;;;;;;;1.60;1.08;;;21.40;83.20;;;;;;4999497;28;20669;-48
2023/05/24 07:34:00;;;;;;;3.00;1.77;;;21.40;83.40;;;;;;5001333;28;20220;-48
2023/05/24 07:36:31;;;;;;;1.60;1.15;;;21.50;83.50;;;;;;5001006;28;20200;-50
2023/05/24 07:38:58;;;;;;;1.80;1.00;;;21.50;83.40;;;;;;5003743;28;20201;-55
2023/05/24 07:41:26;;;;;;;1.60;1.10;;;21.50;83.70;;;;;;5004617;28;20197;-51
2023/05/24 07:43:54;;;;;;;3.95;1.10;;;21.50;83.40;;;;;;5010407;28;20487;-50
2023/05/24 07:46:21;;;;;;;3.80;1.30;;;21.50;83.30;;;;;;5007418;28;20572;-52
2023/05/24 07:48:48;;;;;;;2.22;1.50;;;21.60;83.60;;;;;;5009500;28;20708;-50
2023/05/24 07:51:15;;;;;;;1.50;1.10;;;21.60;83.50;;;;;;5009665;28;20212;-49
2023/05/24 07:53:42;;;;;;;1.60;1.20;;;21.60;83.30;;;;;;5008206;28;20307;-49
2023/05/24 07:56:08;;;;;;;1.00;0.73;;;21.70;83.40;;;;;;5002875;28;20801;-49
2023/05/24 07:58:35;;;;;;;2.73;1.43;;;21.60;83.20;;;;;;5005784;28;20463;-50
2023/05/24 08:01:03;;;;;;;3.00;0.90;;;21.70;83.30;;;;;;5006897;28;20502;-53
2023/05/24 08:03:30;;;;;;;1.30;0.90;;;21.70;83.20;;;;;;5010906;28;20910;-49
2023/05/24 08:05:57;;;;;;;4.53;1.40;;;21.70;83.10;;;;;;5006914;28;20471;-49
2023/05/24 08:08:23;;;;;;;2.23;1.33;;;21.70;83.00;;;;;;5008341;28;20963;-52
2023/05/24 08:10:50;;;;;;;1.50;1.00;;;21.70;82.80;;;;;;5007130;28;20544;-49
2023/05/24 08:13:17;;;;;;;3.38;1.35;;;21.70;82.80;;;;;;5010002;28;20858;-51
2023/05/24 08:15:44;;;;;;;1.63;0.90;;;21.80;82.90;;;;;;5009074;28;20197;-49
2023/05/24 08:18:12;;;;;;;2.30;1.00;;;21.80;83.40;;;;;;4998240;28;20468;-50
2023/05/24 08:20:39;;;;;;;1.40;1.10;;;21.80;82.60;;;;;;5001030;28;20893;-53
2023/05/24 08:23:06;;;;;;;1.60;1.33;;;21.80;82.40;;;;;;5009847;28;20586;-51
2023/05/24 08:25:33;;;;;;;2.13;1.10;;;21.80;82.30;;;;;;5002911;28;21079;-50
2023/05/24 08:27:59;;;;;;;1.60;1.10;;;21.80;82.30;;;;;;5010119;28;20454;-48
2023/05/24 08:30:26;;;;;;;1.20;0.93;;;21.80;82.20;;;;;;5010169;28;20479;-48
2023/05/24 08:32:53;;;;;;;1.77;1.00;;;21.80;82.10;;;;;;5003667;28;20820;-50
2023/05/24 08:35:21;;;;;;;1.40;1.00;;;21.80;82.00;;;;;;5007630;28;20463;-52
2023/05/24 08:37:47;;;;;;;2.90;1.00;;;21.80;82.00;;;;;;5008882;28;20460;-49
2023/05/24 08:40:14;;;;;;;1.83;1.17;;;21.80;81.90;;;;;;5005351;28;20467;-50
2023/05/24 08:42:41;;;;;;;1.87;1.40;;;21.80;81.80;;;;;;4999749;28;20483;-50
2023/05/24 08:45:10;;;;;;;1.13;0.93;;;21.90;81.90;;;;;;5002960;28;20459;-48
2023/05/24 08:47:38;;;;;;;4.40;2.10;;;21.80;81.70;;;;;;5006203;28;20460;-50
2023/05/24 08:50:07;;;;;;;3.07;1.20;;;21.80;80.60;;;;;;5007243;28;20463;-50
2023/05/24 08:52:36;;;;;;;2.10;1.77;;;21.80;81.40;;;;;;5001701;28;20486;-49
2023/05/24 08:55:04;;;;;;;1.97;1.30;;;21.90;81.70;;;;;;5002677;28;20530;-49
2023/05/24 08:57:33;;;;;;;2.40;1.50;;;21.90;81.80;;;;;;5004934;28;20747;-50
2023/05/24 09:00:00;;;;;;;7.87;1.80;;;21.90;82.00;;;;;;5007040;28;20247;-53
2023/05/24 09:02:27;;;;;;;6.33;1.43;;;21.90;82.10;;;;;;5000058;28;20467;-50
2023/05/24 09:04:55;;;;;;;3.53;1.57;;;21.90;82.00;;;;;;5002176;28;20459;-49
2023/05/24 09:07:23;;;;;;;2.00;1.40;;;21.90;82.00;;;;;;4996476;28;20456;-50
2023/05/24 09:09:57;;;;;;;3.27;1.57;;;21.90;82.70;;;;;;5003762;28;20561;-48
2023/05/24 09:12:27;;;;;;;3.80;1.40;;;21.90;82.00;;;;;;5002647;28;20459;-49
2023/05/24 09:14:54;;;;;;;9.97;1.63;;;21.90;82.00;;;;;;5006650;28;20546;-48
2023/05/24 09:17:21;;;;;;;5.10;1.85;;;21.90;82.00;;;;;;5008317;28;20554;-49
2023/05/24 09:19:50;;;;;;;3.87;1.60;;;21.90;81.80;;;;;;5010972;28;20201;-48
2023/05/24 09:22:19;;;;;;;2.13;1.40;;;21.90;81.90;;;;;;5010827;28;20461;-51
2023/05/24 09:24:48;;;;;;;2.28;1.30;;;21.90;82.00;;;;;;5008644;28;20494;-48
2023/05/24 09:27:16;;;;;;;2.80;1.47;;;22.00;82.10;;;;;;5009629;28;20287;-49
2023/05/24 09:29:45;;;;;;;3.33;1.60;;;21.90;82.00;;;;;;5011174;28;20439;-48
2023/05/24 09:32:13;;;;;;;1.27;1.10;;;21.90;82.00;;;;;;5007471;28;20482;-48
2023/05/24 09:34:40;;;;;;;3.00;1.10;;;22.00;82.10;;;;;;5010322;28;20500;-51
2023/05/24 09:37:09;;;;;;;2.20;1.27;;;22.00;82.10;;;;;;5006963;28;20456;-48
2023/05/24 09:39:35;;;;;;;2.30;1.20;;;22.00;82.10;;;;;;5007012;28;20595;-47
2023/05/24 09:42:03;;;;;;;2.63;1.10;;;22.00;82.10;;;;;;5004568;28;20464;-55
2023/05/24 09:44:31;;;;;;;10.40;1.30;;;22.00;81.80;;;;;;5008055;28;20466;-50
2023/05/24 09:47:03;;;;;;;3.20;1.17;;;22.00;82.10;;;;;;5010685;28;20464;-54
2023/05/24 09:49:30;;;;;;;5.50;1.40;;;22.00;82.30;;;;;;5006037;28;20452;-54
2023/05/24 09:51:57;;;;;;;2.03;1.17;;;22.00;82.10;;;;;;5009360;28;20456;-47
2023/05/24 09:54:25;;;;;;;5.13;1.90;;;22.10;82.00;;;;;;5005994;28;20485;-47
2023/05/24 09:56:52;;;;;;;3.73;1.20;;;22.10;82.10;;;;;;5009296;28;20470;-47
2023/05/24 09:59:19;;;;;;;2.07;1.20;;;22.10;82.90;;;;;;5008317;28;20464;-49
2023/05/24 10:01:52;;;;;;;2.00;1.13;;;22.10;82.10;;;;;;5005174;28;20468;-52
2023/05/24 10:04:19;;;;;;;1.80;1.00;;;22.10;82.10;;;;;;5007405;28;20474;-46
2023/05/24 10:06:47;;;;;;;2.77;1.53;;;22.20;82.30;;;;;;5009078;28;20995;-45
2023/05/24 10:09:15;;;;;;;2.13;1.00;;;22.20;82.20;;;;;;5009415;28;20487;-49
2023/05/24 10:11:41;;;;;;;1.37;1.00;;;22.20;82.20;;;;;;5007767;28;20844;-48
2023/05/24 10:14:09;;;;;;;1.30;1.07;;;22.20;82.20;;;;;;5007099;28;20825;-47
2023/05/24 10:16:36;;;;;;;1.60;1.00;;;22.30;82.30;;;;;;5008021;28;20511;-44
2023/05/24 10:19:05;;;;;;;2.73;1.10;;;22.30;82.30;;;;;;5006543;28;20452;-50
2023/05/24 10:21:36;;;;;;;3.57;1.50;;;22.30;82.20;;;;;;5006284;28;20467;-48
2023/05/24 10:24:06;;;;;;;1.50;1.00;;;22.30;82.10;;;;;;5013396;28;20471;-49
2023/05/24 10:26:33;;;;;;;2.03;1.20;;;22.40;82.30;;;;;;5011136;28;20565;-48
2023/05/24 10:29:07;;;;;;;1.67;1.30;;;22.40;82.20;;;;;;5007525;28;20983;-51
2023/05/24 10:31:38;;;;;;;3.03;1.57;;;22.40;82.20;;;;;;5010700;28;21306;-52
2023/05/24 10:34:07;;;;;;;1.97;1.10;;;22.40;83.00;;;;;;5012770;28;20475;-50
2023/05/24 10:36:35;;;;;;;8.90;2.60;;;22.40;82.10;;;;;;5009743;28;21007;-52
2023/05/24 10:39:02;;;;;;;2.23;1.40;;;22.50;82.10;;;;;;5009083;28;20455;-51
2023/05/24 10:41:29;;;;;;;1.67;1.00;;;22.50;82.20;;;;;;5012493;28;20460;-50
2023/05/24 10:43:57;;;;;;;10.80;1.50;;;22.50;82.10;;;;;;5010499;28;20533;-50
2023/05/24 10:46:24;;;;;;;3.00;1.13;;;22.50;82.10;;;;;;5002933;28;20462;-52
2023/05/24 10:49:01;;;;;;;1.60;0.83;;;22.60;82.10;;;;;;5008797;28;20467;-46
2023/05/24 10:51:37;;;;;;;2.10;1.30;;;22.60;82.00;;;;;;5010321;28;20455;-48
2023/05/24 10:54:25;;;;;;;1.80;1.20;;;22.60;82.00;;;;;;5008146;28;20566;-48
2023/05/24 10:56:52;;;;;;;1.80;1.40;;;22.70;82.00;;;;;;5011184;28;20482;-48
2023/05/24 10:59:36;;;;;;;1.43;1.00;;;22.70;82.00;;;;;;5008623;28;20462;-48
2023/05/24 11:02:05;;;;;;;1.63;1.17;;;22.70;81.80;;;;;;5010488;28;20455;-50
2023/05/24 11:04:33;;;;;;;2.93;1.17;;;22.70;81.90;;;;;;5009833;28;20460;-46
2023/05/24 11:07:08;;;;;;;1.90;1.20;;;22.80;82.00;;;;;;5012739;28;20491;-47
2023/05/24 11:09:35;;;;;;;3.90;1.33;;;22.80;81.80;;;;;;5008043;28;20465;-51
2023/05/24 11:12:06;;;;;;;1.47;1.00;;;22.80;81.80;;;;;;5010263;28;20455;-48
2023/05/24 11:14:35;;;;;;;5.00;1.40;;;22.80;81.70;;;;;;5006930;28;20583;-48
2023/05/24 11:17:04;;;;;;;1.43;1.10;;;22.90;81.80;;;;;;5010363;28;20495;-52
2023/05/24 11:19:33;;;;;;;1.20;1.00;;;22.90;81.80;;;;;;5009082;28;20866;-50
2023/05/24 11:22:02;;;;;;;2.17;1.07;;;22.90;81.70;;;;;;5003177;28;22087;-49
2023/05/24 11:24:31;;;;;;;2.07;1.27;;;22.90;81.60;;;;;;5009823;28;20476;-57
2023/05/24 11:26:59;;;;;;;1.33;0.90;;;23.00;81.60;;;;;;5010582;28;20555;-53
2023/05/24 11:29:25;;;;;;;1.50;0.90;;;23.00;81.60;;;;;;5006217;28;20460;-51
2023/05/24 11:31:53;;;;;;;1.30;0.97;;;23.00;81.70;;;;;;5008555;28;20456;-49
2023/05/24 11:34:21;;;;;;;2.37;1.07;;;23.00;81.60;;;;;;5010503;28;20649;-56
2023/05/24 11:36:48;;;;;;;2.70;1.20;;;23.10;81.80;;;;;;5011319;28;20914;-55
2023/05/24 11:39:15;;;;;;;1.40;1.10;;;23.10;81.80;;;;;;5004721;28;20486;-52
2023/05/24 11:41:44;;;;;;;1.90;1.17;;;23.10;81.80;;;;;;5001144;28;20484;-53
2023/05/24 11:44:12;;;;;;;1.53;1.10;;;23.10;81.80;;;;;;5007100;28;20470;-49
2023/05/24 11:46:40;;;;;;;3.60;1.93;;;23.10;81.70;;;;;;5010338;28;21773;-46
2023/05/24 11:49:06;;;;;;;1.90;1.27;;;23.20;81.80;;;;;;5008269;28;20451;-47
2023/05/24 11:51:34;;;;;;;1.50;1.00;;;23.20;81.80;;;;;;5010160;28;20467;-49
2023/05/24 11:54:01;;;;;;;3.60;1.20;;;23.20;81.80;;;;;;5008952;28;20533;-52
2023/05/24 11:56:30;;;;;;;1.97;1.33;;;23.20;81.60;;;;;;5009703;28;20463;-53
2023/05/24 11:59:09;;;;;;;2.60;1.13;;;23.20;81.50;;;;;;5007133;28;20963;-53
2023/05/24 12:01:36;;;;;;;3.00;1.30;;;23.30;81.40;;;;;;5007155;28;20463;-51
2023/05/24 12:04:06;;;;;;;2.53;1.47;;;23.30;81.40;;;;;;5008973;28;20479;-54
2023/05/24 12:06:37;;;;;;;2.97;1.40;;;23.30;81.30;;;;;;5011500;28;20543;-49
2023/05/24 12:09:09;;;;;;;2.97;1.17;;;23.30;81.00;;;;;;5006397;28;20486;-48
2023/05/24 12:11:39;;;;;;;2.30;1.10;;;23.30;81.20;;;;;;5004770;28;20472;-48
2023/05/24 12:14:07;;;;;;;2.43;1.30;;;23.30;80.90;;;;;;5010898;28;20562;-49
2023/05/24 12:16:36;;;;;;;1.67;1.10;;;23.30;80.80;;;;;;5002571;28;21212;-49
2023/05/24 12:19:02;;;;;;;1.80;1.10;;;23.40;80.60;;;;;;5006054;28;20858;-52
2023/05/24 12:21:33;;;;;;;2.40;1.53;;;23.40;80.70;;;;;;5009600;28;20815;-49
2023/05/24 12:24:09;;;;;;;2.00;1.40;;;23.40;80.30;;;;;;4980745;28;20535;-52
2023/05/24 12:26:37;;;;;;;4.97;2.03;;;23.40;80.30;;;;;;4994002;28;20447;-57
2023/05/24 12:29:03;;;;;;;1.80;1.13;;;23.40;80.40;;;;;;4998443;28;20459;-53
2023/05/24 12:31:31;;;;;;;2.10;1.07;;;23.40;80.00;;;;;;5003620;28;20510;-51
2023/05/24 12:33:59;;;;;;;2.87;1.50;;;23.40;80.00;;;;;;5005344;28;20495;-53
2023/05/24 12:36:27;;;;;;;1.40;1.07;;;23.50;80.20;;;;;;5005363;28;20543;-51
2023/05/24 12:38:56;;;;;;;2.00;1.40;;;23.50;80.10;;;;;;5002686;28;20498;-50
2023/05/24 12:41:23;;;;;;;1.40;1.10;;;23.50;80.10;;;;;;5000460;28;20462;-56
2023/05/24 12:43:52;;;;;;;1.80;1.20;;;23.50;79.90;;;;;;5002610;28;20470;-55
2023/05/24 12:46:18;;;;;;;1.40;0.90;;;23.50;79.90;;;;;;4997112;28;20467;-51
2023/05/24 12:48:46;;;;;;;2.70;1.40;;;23.50;79.80;;;;;;4999445;28;20475;-53
2023/05/24 12:51:13;;;;;;;1.73;1.37;;;23.50;79.80;;;;;;4998291;28;20468;-52
2023/05/24 12:53:40;;;;;;;2.10;1.10;;;23.50;79.60;;;;;;4998842;28;20487;-49
2023/05/24 12:56:07;;;;;;;3.07;1.80;;;23.50;79.40;;;;;;4995508;28;20878;-46